createdAt,value
2022-09-12T00:01:26.796Z,18.03
2022-09-12T00:03:55.877Z,16.40
2022-09-12T00:06:25.496Z,17.17
2022-09-12T00:08:56.066Z,16.50
2022-09-12T00:11:24.728Z,16.47
2022-09-12T00:13:53.172Z,16.87
2022-09-12T00:16:22.616Z,16.80
2022-09-12T00:18:53.660Z,16.70
2022-09-12T00:21:22.769Z,16.90
2022-09-12T00:23:51.780Z,16.30
2022-09-12T00:26:21.755Z,18.00
2022-09-12T00:28:50.685Z,16.40
2022-09-12T00:31:21.168Z,17.17
2022-09-12T00:33:49.687Z,15.40
2022-09-12T00:36:20.378Z,15.40
2022-09-12T00:38:49.944Z,17.33
2022-09-12T00:41:19.844Z,17.47
2022-09-12T00:43:49.219Z,16.00
2022-09-12T00:46:28.099Z,15.20
2022-09-12T00:48:58.865Z,16.43
2022-09-12T00:51:29.107Z,15.73
2022-09-12T00:53:59.413Z,16.90
2022-09-12T00:56:29.105Z,16.57
2022-09-12T00:58:59.318Z,16.23
2022-09-12T01:01:32.330Z,15.27
2022-09-12T01:04:01.294Z,15.10
2022-09-12T01:06:36.353Z,17.33
2022-09-12T01:09:05.866Z,16.30
2022-09-12T01:11:36.344Z,15.30
2022-09-12T01:14:07.500Z,14.23
2022-09-12T01:16:37.436Z,14.77
2022-09-12T01:19:14.958Z,16.00
2022-09-12T01:21:50.424Z,15.90
2022-09-12T01:24:31.460Z,14.40
2022-09-12T01:27:27.339Z,14.53
2022-09-12T01:30:04.897Z,15.93
2022-09-12T01:32:38.130Z,16.73
2022-09-12T01:35:08.617Z,16.60
2022-09-12T01:37:42.120Z,16.10
2022-09-12T01:40:16.632Z,14.37
2022-09-12T01:42:48.335Z,15.53
2022-09-12T01:45:20.242Z,15.70
2022-09-12T01:47:52.008Z,15.13
2022-09-12T01:50:21.598Z,14.27
2022-09-12T01:52:52.263Z,15.37
2022-09-12T01:55:22.678Z,15.20
2022-09-12T01:57:54.135Z,16.20
2022-09-12T02:00:22.614Z,15.80
2022-09-12T02:02:54.727Z,16.60
2022-09-12T02:05:26.055Z,15.50
2022-09-12T02:07:56.982Z,14.27
2022-09-12T02:10:32.215Z,15.00
2022-09-12T02:13:05.470Z,16.80
2022-09-12T02:15:36.050Z,13.27
2022-09-12T02:18:07.569Z,13.73
2022-09-12T02:20:48.073Z,14.23
2022-09-12T02:23:20.516Z,13.33
2022-09-12T02:25:50.898Z,14.33
2022-09-12T02:28:22.635Z,14.10
2022-09-12T02:30:54.671Z,14.53
2022-09-12T02:33:26.716Z,14.13
2022-09-12T02:35:58.270Z,15.67
2022-09-12T02:38:29.988Z,15.07
2022-09-12T02:40:58.792Z,13.83
2022-09-12T02:43:27.358Z,15.93
2022-09-12T02:45:56.128Z,13.30
2022-09-12T02:48:28.970Z,15.00
2022-09-12T02:50:57.843Z,15.20
2022-09-12T02:53:35.021Z,14.37
2022-09-12T02:56:04.298Z,13.90
2022-09-12T02:58:33.448Z,15.63
2022-09-12T03:01:05.820Z,14.37
2022-09-12T03:03:45.987Z,16.00
2022-09-12T03:06:18.064Z,15.63
2022-09-12T03:08:52.087Z,14.60
2022-09-12T03:11:27.064Z,14.67
2022-09-12T03:14:00.142Z,15.00
2022-09-12T03:16:31.293Z,13.83
2022-09-12T03:19:04.927Z,16.10
2022-09-12T03:21:35.730Z,15.30
2022-09-12T03:24:10.040Z,14.50
2022-09-12T03:26:41.639Z,15.37
2022-09-12T03:29:10.752Z,15.17
2022-09-12T03:31:39.409Z,15.60
2022-09-12T03:34:13.090Z,15.20
2022-09-12T03:36:41.925Z,14.57
2022-09-12T03:39:10.517Z,15.60
2022-09-12T03:41:39.211Z,16.57
2022-09-12T03:44:07.818Z,15.07
2022-09-12T03:46:36.605Z,16.43
2022-09-12T03:49:06.007Z,14.90
2022-09-12T03:51:35.818Z,15.00
2022-09-12T03:54:04.389Z,14.97
2022-09-12T03:56:33.180Z,15.07
2022-09-12T03:59:01.653Z,13.33
2022-09-12T04:01:30.189Z,13.10
2022-09-12T04:03:58.689Z,16.83
2022-09-12T04:06:27.197Z,16.10
2022-09-12T04:08:57.127Z,15.20
2022-09-12T04:11:25.633Z,14.03
2022-09-12T04:13:54.239Z,13.43
2022-09-12T04:16:22.915Z,14.30
2022-09-12T04:18:51.389Z,14.10
2022-09-12T04:21:21.800Z,14.07
2022-09-12T04:23:50.354Z,14.00
2022-09-12T04:26:21.113Z,13.20
2022-09-12T04:28:50.391Z,12.80
2022-09-12T04:31:22.525Z,13.73
2022-09-12T04:33:55.127Z,13.50
2022-09-12T04:36:23.776Z,12.73
2022-09-12T04:38:52.979Z,13.70
2022-09-12T04:41:23.881Z,13.27
2022-09-12T04:43:53.861Z,11.47
2022-09-12T04:46:22.912Z,11.97
2022-09-12T04:48:56.074Z,13.87
2022-09-12T04:51:27.622Z,12.30
2022-09-12T04:53:56.783Z,13.03
2022-09-12T04:56:28.757Z,12.27
2022-09-12T04:58:58.767Z,12.33
2022-09-12T05:01:28.047Z,13.33
2022-09-12T05:03:57.610Z,11.83
2022-09-12T05:06:27.384Z,11.57
2022-09-12T05:08:57.470Z,11.93
2022-09-12T05:12:00.110Z,11.47
2022-09-12T05:14:22.702Z,12.77
2022-09-12T05:16:52.029Z,12.33
2022-09-12T05:19:21.410Z,12.50
2022-09-12T05:21:50.438Z,12.33
2022-09-12T05:24:19.560Z,11.23
2022-09-12T05:26:49.995Z,12.27
2022-09-12T05:29:19.270Z,10.93
2022-09-12T05:31:52.263Z,11.60
2022-09-12T05:34:21.812Z,11.53
2022-09-12T05:36:50.511Z,10.60
2022-09-12T05:39:19.688Z,12.23
2022-09-12T05:41:49.760Z,11.90
2022-09-12T05:44:18.332Z,10.30
2022-09-12T05:46:50.365Z,10.50
2022-09-12T05:49:19.131Z,10.73
2022-09-12T05:51:47.694Z,10.00
2022-09-12T05:54:17.311Z,9.40
2022-09-12T05:56:51.971Z,10.20
2022-09-12T05:59:24.026Z,9.43
2022-09-12T06:01:52.700Z,10.20
2022-09-12T06:04:21.188Z,8.00
2022-09-12T06:06:50.130Z,8.60
2022-09-12T06:09:19.396Z,9.40
2022-09-12T06:11:48.323Z,8.50
2022-09-12T06:14:17.681Z,9.37
2022-09-12T06:16:48.584Z,8.67
2022-09-12T06:19:18.592Z,8.53
2022-09-12T06:21:48.100Z,8.20
2022-09-12T06:24:17.613Z,7.00
2022-09-12T06:26:47.348Z,9.40
2022-09-12T06:29:16.152Z,7.93
2022-09-12T06:31:45.286Z,7.60
2022-09-12T06:34:16.192Z,7.67
2022-09-12T06:36:45.950Z,7.60
2022-09-12T06:39:16.209Z,7.27
2022-09-12T06:41:45.105Z,7.93
2022-09-12T06:44:15.978Z,7.87
2022-09-12T06:46:45.161Z,7.43
2022-09-12T06:49:15.412Z,7.10
2022-09-12T06:51:44.535Z,7.00
2022-09-12T06:54:14.370Z,6.97
2022-09-12T06:56:42.996Z,7.27
2022-09-12T06:59:11.761Z,6.97
2022-09-12T07:01:41.137Z,9.53
2022-09-12T07:04:10.115Z,6.70
2022-09-12T07:06:40.875Z,6.67
2022-09-12T07:09:10.435Z,7.87
2022-09-12T07:11:40.655Z,6.93
2022-09-12T07:14:10.556Z,6.70
2022-09-12T07:16:39.329Z,7.13
2022-09-12T07:19:08.896Z,8.03
2022-09-12T07:21:40.336Z,6.43
2022-09-12T07:24:11.502Z,7.07
2022-09-12T07:26:42.079Z,7.60
2022-09-12T07:32:04.103Z,6.93
2022-09-12T07:34:32.647Z,7.97
2022-09-12T07:37:01.164Z,5.90
2022-09-12T07:39:31.148Z,6.57
2022-09-12T07:42:00.387Z,6.60
2022-09-12T07:44:29.430Z,6.70
2022-09-12T07:46:57.945Z,5.97
2022-09-12T07:49:26.448Z,7.00
2022-09-12T07:51:55.022Z,6.60
2022-09-12T07:54:23.516Z,6.83
2022-09-12T07:56:53.486Z,6.60
2022-09-12T07:59:48.487Z,7.33
2022-09-12T08:02:17.223Z,7.73
2022-09-12T08:04:46.664Z,6.40
2022-09-12T08:07:15.181Z,6.63
2022-09-12T08:09:43.718Z,6.73
2022-09-12T08:12:13.668Z,6.07
2022-09-12T08:14:42.192Z,6.20
2022-09-12T08:17:10.807Z,6.73
2022-09-12T08:19:39.414Z,6.30
2022-09-12T08:22:08.250Z,6.07
2022-09-12T08:24:36.744Z,6.70
2022-09-12T08:27:05.523Z,7.50
2022-09-12T08:29:35.456Z,6.33
2022-09-12T08:32:04.816Z,6.37
2022-09-12T08:34:33.439Z,5.83
2022-09-12T08:37:02.045Z,6.13
2022-09-12T08:39:30.626Z,6.00
2022-09-12T08:42:02.883Z,6.03
2022-09-12T08:44:53.481Z,6.13
2022-09-12T08:47:26.668Z,6.20
2022-09-12T08:50:01.930Z,6.60
2022-09-12T08:52:32.668Z,5.20
2022-09-12T08:55:02.716Z,5.70
2022-09-12T08:57:31.385Z,5.43
2022-09-12T08:59:59.966Z,7.17
2022-09-12T09:02:52.919Z,5.90
2022-09-12T09:05:26.513Z,5.90
2022-09-12T09:08:02.770Z,6.17
2022-09-12T09:10:34.439Z,5.93
2022-09-12T09:13:07.731Z,5.90
2022-09-12T09:15:41.911Z,5.33
2022-09-12T09:18:14.461Z,5.73
2022-09-12T09:20:47.356Z,5.70
2022-09-12T09:23:17.406Z,5.63
2022-09-12T09:25:50.731Z,5.07
2022-09-12T09:28:21.832Z,5.70
2022-09-12T09:30:50.494Z,5.60
2022-09-12T09:33:22.342Z,5.47
2022-09-12T09:35:57.244Z,5.30
2022-09-12T09:38:27.153Z,5.93
2022-09-12T09:41:01.469Z,5.23
2022-09-12T09:43:30.291Z,4.33
2022-09-12T09:46:00.194Z,5.33
2022-09-12T09:48:30.211Z,5.70
2022-09-12T09:51:01.802Z,4.73
2022-09-12T09:53:35.088Z,5.60
2022-09-12T09:56:05.404Z,5.00
2022-09-12T09:58:35.141Z,5.10
2022-09-12T10:01:05.686Z,4.77
2022-09-12T10:03:36.178Z,4.80
2022-09-12T10:06:09.207Z,5.20
2022-09-12T10:08:38.532Z,4.93
2022-09-12T10:11:08.021Z,5.20
2022-09-12T10:13:42.260Z,5.20
2022-09-12T10:16:20.005Z,5.17
2022-09-12T10:18:48.563Z,4.90
2022-09-12T10:21:27.253Z,4.93
2022-09-12T10:24:00.990Z,4.67
2022-09-12T10:26:33.888Z,5.23
2022-09-12T10:29:06.242Z,4.43
2022-09-12T10:31:39.136Z,4.40
2022-09-12T10:34:07.868Z,4.60
2022-09-12T10:36:41.539Z,4.73
2022-09-12T10:39:18.453Z,3.97
2022-09-12T10:41:47.372Z,4.40
2022-09-12T10:44:17.430Z,3.83
2022-09-12T10:46:46.846Z,3.70
2022-09-12T10:49:23.570Z,4.07
2022-09-12T10:51:54.324Z,3.40
2022-09-12T10:54:23.868Z,4.20
2022-09-12T10:56:58.160Z,3.80
2022-09-12T10:59:34.247Z,3.90
2022-09-12T11:02:04.579Z,3.90
2022-09-12T11:04:43.614Z,3.40
2022-09-12T11:07:22.338Z,2.70
2022-09-12T11:09:54.890Z,3.13
2022-09-12T11:12:28.855Z,2.77
2022-09-12T11:15:02.102Z,3.27
2022-09-12T11:17:37.375Z,3.07
2022-09-12T11:20:18.624Z,2.97
2022-09-12T11:22:58.366Z,3.40
2022-09-12T11:25:30.984Z,3.17
2022-09-12T11:28:04.538Z,3.03
2022-09-12T11:30:35.859Z,2.80
2022-09-12T11:33:09.428Z,3.00
2022-09-12T11:35:42.459Z,2.83
2022-09-12T11:38:27.654Z,3.03
2022-09-12T11:40:57.109Z,2.50
2022-09-12T11:43:28.750Z,2.80
2022-09-12T11:46:01.389Z,2.60
2022-09-12T11:48:37.233Z,2.60
2022-09-12T11:51:07.266Z,2.73
2022-09-12T11:53:39.895Z,2.33
2022-09-12T11:56:13.859Z,2.27
2022-09-12T11:58:46.718Z,2.33
2022-09-12T12:01:17.261Z,2.03
2022-09-12T12:03:46.793Z,2.27
2022-09-12T12:06:19.351Z,2.30
2022-09-12T12:08:50.445Z,2.13
2022-09-12T12:11:28.525Z,1.80
2022-09-12T12:13:58.542Z,2.17
2022-09-12T12:16:28.531Z,2.90
2022-09-12T12:18:58.035Z,2.00
2022-09-12T12:21:37.868Z,2.33
2022-09-12T12:24:16.075Z,2.13
2022-09-12T12:26:51.325Z,1.83
2022-09-12T12:29:41.576Z,1.93
2022-09-12T12:32:22.403Z,1.80
2022-09-12T12:34:51.139Z,2.07
2022-09-12T12:37:38.749Z,1.97
2022-09-12T12:40:11.682Z,2.40
2022-09-12T12:43:04.728Z,2.30
2022-09-12T12:46:06.727Z,1.90
2022-09-12T12:48:46.535Z,2.20
2022-09-12T12:51:21.269Z,2.13
2022-09-12T12:53:49.886Z,2.10
2022-09-12T12:56:31.397Z,1.73
2022-09-12T12:59:00.564Z,1.80
2022-09-12T13:01:29.937Z,1.77
2022-09-12T13:04:01.257Z,1.97
2022-09-12T13:06:33.412Z,1.73
2022-09-12T13:09:03.775Z,1.90
2022-09-12T13:11:35.886Z,2.10
2022-09-12T13:14:07.012Z,2.00
2022-09-12T13:16:36.909Z,1.83
2022-09-12T13:19:06.998Z,2.07
2022-09-12T13:21:35.829Z,2.60
2022-09-12T13:24:05.710Z,2.30
2022-09-12T13:26:44.715Z,2.20
2022-09-12T13:29:14.997Z,2.40
2022-09-12T13:31:47.369Z,2.47
2022-09-12T13:34:20.078Z,2.43
2022-09-12T13:36:55.607Z,2.70
2022-09-12T13:39:28.181Z,2.40
2022-09-12T13:42:14.725Z,2.30
2022-09-12T13:44:46.488Z,2.10
2022-09-12T13:47:16.601Z,2.40
2022-09-12T13:49:45.736Z,2.47
2022-09-12T13:52:17.645Z,2.50
2022-09-12T13:54:47.978Z,2.63
2022-09-12T13:57:29.319Z,2.50
2022-09-12T14:00:00.430Z,2.30
2022-09-12T14:02:31.350Z,2.67
2022-09-12T14:05:12.016Z,2.30
2022-09-12T14:07:54.567Z,2.30
2022-09-12T14:10:25.730Z,2.50
2022-09-12T14:12:57.208Z,2.28
2022-09-12T14:15:29.378Z,2.15
2022-09-12T14:18:01.404Z,2.65
2022-09-12T14:20:32.674Z,2.33
2022-09-12T14:23:02.359Z,2.33
2022-09-12T14:25:34.957Z,2.50
2022-09-12T14:28:03.847Z,2.60
2022-09-12T14:30:34.782Z,2.28
2022-09-12T14:33:30.498Z,2.42
2022-09-12T14:36:10.471Z,2.80
2022-09-12T14:38:42.076Z,2.70
2022-09-12T14:41:11.613Z,2.38
2022-09-12T14:43:41.047Z,2.75
2022-09-12T14:46:17.320Z,2.20
2022-09-12T14:48:50.334Z,2.75
2022-09-12T14:51:23.035Z,2.85
2022-09-12T14:53:51.844Z,2.40
2022-09-12T14:56:22.924Z,2.78
2022-09-12T14:58:52.744Z,2.38
2022-09-12T15:01:27.534Z,3.10
2022-09-12T15:03:57.760Z,2.40
2022-09-12T15:06:29.340Z,2.47
2022-09-12T15:08:59.671Z,2.83
2022-09-12T15:11:28.261Z,2.20
2022-09-12T15:13:57.075Z,2.70
2022-09-12T15:16:27.087Z,2.30
2022-09-12T15:18:55.744Z,2.70
2022-09-12T15:21:24.426Z,2.60
2022-09-12T15:23:53.834Z,2.75
2022-09-12T15:26:23.522Z,2.70
2022-09-12T15:28:52.588Z,3.10
2022-09-12T15:31:25.365Z,3.03
2022-09-12T15:33:55.918Z,2.85
2022-09-12T15:36:25.592Z,2.80
2022-09-12T15:38:54.608Z,2.70
2022-09-12T15:41:24.244Z,3.00
2022-09-12T15:43:53.476Z,2.73
2022-09-12T15:46:22.433Z,2.63
2022-09-12T15:48:51.140Z,2.77
2022-09-12T15:51:21.786Z,2.33
2022-09-12T15:53:51.043Z,2.70
2022-09-12T15:56:20.169Z,2.73
2022-09-12T15:58:59.072Z,2.70
2022-09-12T16:01:28.370Z,2.80
2022-09-12T16:03:57.378Z,2.90
2022-09-12T16:06:33.529Z,2.50
2022-09-12T16:09:04.970Z,2.30
2022-09-12T16:11:33.467Z,2.67
2022-09-12T16:14:03.709Z,2.57
2022-09-12T16:16:32.517Z,2.80
2022-09-12T16:19:01.702Z,2.47
2022-09-12T16:21:31.912Z,2.70
2022-09-12T16:24:00.565Z,2.67
2022-09-12T16:26:29.635Z,2.27
2022-09-12T16:28:58.859Z,3.23
2022-09-12T16:31:28.948Z,3.13
2022-09-12T16:33:57.815Z,2.50
2022-09-12T16:36:26.491Z,2.73
2022-09-12T16:38:56.818Z,2.60
2022-09-12T16:41:26.582Z,3.07
2022-09-12T16:43:55.685Z,2.33
2022-09-12T16:46:25.610Z,2.90
2022-09-12T16:48:56.008Z,2.70
2022-09-12T16:51:27.258Z,2.70
2022-09-12T16:53:57.690Z,2.80
2022-09-12T16:56:26.623Z,2.73
2022-09-12T16:58:55.593Z,2.87
2022-09-12T17:01:24.954Z,2.23
2022-09-12T17:03:54.630Z,2.33
2022-09-12T17:06:23.159Z,1.90
2022-09-12T17:08:52.891Z,2.10
2022-09-12T17:11:23.651Z,2.70
2022-09-12T17:14:04.488Z,2.70
2022-09-12T17:16:34.757Z,2.87
2022-09-12T17:19:03.481Z,3.57
2022-09-12T17:21:32.006Z,2.67
2022-09-12T17:24:00.708Z,2.60
2022-09-12T17:26:30.630Z,2.33
2022-09-12T17:28:59.425Z,2.90
2022-09-12T17:31:29.054Z,2.50
2022-09-12T17:33:58.872Z,2.50
2022-09-12T17:36:27.542Z,3.63
2022-09-12T17:38:57.103Z,2.33
2022-09-12T17:41:27.343Z,2.33
2022-09-12T17:43:58.813Z,2.90
2022-09-12T17:46:28.062Z,2.50
2022-09-12T17:48:57.394Z,2.47
2022-09-12T17:51:28.933Z,2.10
2022-09-12T17:54:00.154Z,3.10
2022-09-12T17:56:31.189Z,2.60
2022-09-12T17:59:02.011Z,2.47
2022-09-12T18:01:50.427Z,2.80
2022-09-12T18:04:20.367Z,2.27
2022-09-12T18:06:49.549Z,2.30
2022-09-12T18:09:19.547Z,2.60
2022-09-12T18:11:48.752Z,2.60
2022-09-12T18:14:19.132Z,2.60
2022-09-12T18:16:48.322Z,2.40
2022-09-12T18:19:17.422Z,2.77
2022-09-12T18:21:45.955Z,2.57
2022-09-12T18:24:24.720Z,2.60
2022-09-12T18:26:53.318Z,2.67
2022-09-12T18:29:23.371Z,2.60
2022-09-12T18:31:52.552Z,2.20
2022-09-12T18:34:22.254Z,2.60
2022-09-12T18:36:54.192Z,2.70
2022-09-12T18:39:26.858Z,2.50
2022-09-12T18:41:56.639Z,2.30
2022-09-12T18:44:26.839Z,2.60
2022-09-12T18:47:02.231Z,2.50
2022-09-12T18:49:31.850Z,2.60
2022-09-12T18:52:00.459Z,2.57
2022-09-12T18:54:29.283Z,2.50
2022-09-12T18:56:58.308Z,2.80
2022-09-12T18:59:28.334Z,2.80
2022-09-12T19:01:59.970Z,2.50
2022-09-12T19:04:28.896Z,2.40
2022-09-12T19:07:01.639Z,2.87
2022-09-12T19:09:31.304Z,2.70
2022-09-12T19:12:00.164Z,2.43
2022-09-12T19:14:33.996Z,2.83
2022-09-12T19:17:03.175Z,2.43
2022-09-12T19:19:31.830Z,2.90
2022-09-12T19:22:00.351Z,3.00
2022-09-12T19:24:29.439Z,2.97
2022-09-12T19:26:58.494Z,2.73
2022-09-12T19:29:30.047Z,2.63
2022-09-12T19:31:58.932Z,3.30
2022-09-12T19:34:28.067Z,3.03
2022-09-12T19:36:59.431Z,3.17
2022-09-12T19:39:28.187Z,3.13
2022-09-12T19:41:56.784Z,3.00
2022-09-12T19:44:27.500Z,2.83
2022-09-12T19:46:58.026Z,2.77
2022-09-12T19:49:30.325Z,2.97
2022-09-12T19:51:59.259Z,2.97
2022-09-12T19:54:27.850Z,3.20
2022-09-12T19:56:56.506Z,2.97
2022-09-12T19:59:26.147Z,3.00
2022-09-12T20:01:54.885Z,3.40
2022-09-12T20:04:24.860Z,3.13
2022-09-12T20:06:53.467Z,2.80
2022-09-12T20:09:21.956Z,3.10
2022-09-12T20:11:50.443Z,3.43
2022-09-12T20:14:19.073Z,2.53
2022-09-12T20:16:47.885Z,2.70
2022-09-12T20:19:19.217Z,2.90
2022-09-12T20:21:49.273Z,2.80
2022-09-12T20:24:18.812Z,2.80
2022-09-12T20:26:48.139Z,3.33
2022-09-12T20:29:17.434Z,3.30
2022-09-12T20:31:46.309Z,2.90
2022-09-12T20:34:16.563Z,3.40
2022-09-12T20:36:45.502Z,3.47
2022-09-12T20:39:16.548Z,3.57
2022-09-12T20:41:46.606Z,3.83
2022-09-12T20:44:15.533Z,3.40
2022-09-12T20:46:44.462Z,3.27
2022-09-12T20:49:13.293Z,3.40
2022-09-12T20:51:43.048Z,3.20
2022-09-12T20:54:12.175Z,4.10
2022-09-12T20:56:42.444Z,3.77
2022-09-12T20:59:13.283Z,3.87
2022-09-12T21:01:42.118Z,3.00
2022-09-12T21:04:14.789Z,3.70
2022-09-12T21:06:44.050Z,4.00
2022-09-12T21:09:12.781Z,4.60
2022-09-12T21:11:43.018Z,3.43
2022-09-12T21:14:11.879Z,3.33
2022-09-12T21:16:40.491Z,3.30
2022-09-12T21:19:10.887Z,3.50
2022-09-12T21:21:39.693Z,3.20
2022-09-12T21:24:08.577Z,3.50
2022-09-12T21:26:37.110Z,3.80
2022-09-12T21:29:06.967Z,3.43
2022-09-12T21:31:35.674Z,3.30
2022-09-12T21:34:04.334Z,3.40
2022-09-12T21:36:32.903Z,3.90
2022-09-12T21:39:01.476Z,3.47
2022-09-12T21:41:30.118Z,3.53
2022-09-12T21:43:59.016Z,3.40
2022-09-12T21:46:28.930Z,3.50
2022-09-12T21:48:57.595Z,3.80
2022-09-12T21:51:26.054Z,3.73
2022-09-12T21:53:54.908Z,3.43
2022-09-12T21:56:23.911Z,3.60
2022-09-12T21:58:52.560Z,2.90
2022-09-12T22:01:21.232Z,3.37
2022-09-12T22:03:52.164Z,3.83
2022-09-12T22:06:22.518Z,3.10
2022-09-12T22:08:51.310Z,3.80
2022-09-12T22:11:20.853Z,4.10
2022-09-12T22:13:49.558Z,3.47
2022-09-12T22:16:18.354Z,3.43
2022-09-12T22:18:47.554Z,3.10
2022-09-12T22:21:20.317Z,3.80
2022-09-12T22:24:06.750Z,3.50
2022-09-12T22:26:42.058Z,3.70
2022-09-12T22:29:11.053Z,3.57
2022-09-12T22:31:39.821Z,3.50
2022-09-12T22:34:09.190Z,3.43
2022-09-12T22:36:39.663Z,3.47
2022-09-12T22:39:11.521Z,4.03
2022-09-12T22:41:42.462Z,3.83
2022-09-12T22:44:13.539Z,3.93
2022-09-12T22:46:43.089Z,3.60
2022-09-12T22:49:13.172Z,3.77
2022-09-12T22:52:09.309Z,4.00
2022-09-12T22:54:41.256Z,3.83
2022-09-12T22:57:14.026Z,4.27
2022-09-12T22:59:44.358Z,4.33
2022-09-12T23:02:14.242Z,3.90
2022-09-12T23:04:44.366Z,3.80
2022-09-12T23:07:15.851Z,4.43
2022-09-12T23:09:46.481Z,3.90
2022-09-12T23:12:17.925Z,3.90
2022-09-12T23:14:48.686Z,4.03
2022-09-12T23:17:17.860Z,4.33
2022-09-12T23:19:48.896Z,4.30
2022-09-12T23:22:19.108Z,3.57
2022-09-12T23:24:48.283Z,3.40
2022-09-12T23:27:18.614Z,3.73
2022-09-12T23:29:52.258Z,4.30
2022-09-12T23:32:21.228Z,4.17
2022-09-12T23:34:49.752Z,3.87
2022-09-12T23:37:21.702Z,3.90
2022-09-12T23:39:50.368Z,4.03
2022-09-12T23:42:18.950Z,4.03
2022-09-12T23:44:48.022Z,3.63
2022-09-12T23:47:18.398Z,4.40
2022-09-12T23:49:46.855Z,4.37
2022-09-12T23:52:15.471Z,3.97
2022-09-12T23:54:45.387Z,3.33
2022-09-12T23:57:15.152Z,4.80
2022-09-12T23:59:43.778Z,4.57
